Time;durP1;ratioP1;P1;durP2;ratioP2;P2;SDS_P1;SDS_P2;PMS_P1;PMS_P2;Temp;Humidity;BMP_temperature;BMP_pressure;BME280_temperature;BME280_humidity;BME280_pressure;Samples;Min_cycle;Max_cycle;Signal;HPM_P1;HPM_P2
2021/06/26 00:01:13;;;;;;;5.00;4.50;;;16.90;99.90;;;;;;5076304;28;20170;-56
2021/06/26 00:03:39;;;;;;;5.70;5.10;;;16.90;99.90;;;;;;5075672;28;20206;-58
2021/06/26 00:06:04;;;;;;;5.50;4.80;;;16.80;99.90;;;;;;5076766;28;20168;-56
2021/06/26 00:08:30;;;;;;;4.87;4.37;;;16.70;99.90;;;;;;5075569;28;20197;-60
2021/06/26 00:10:57;;;;;;;5.63;5.13;;;16.70;99.90;;;;;;5076180;28;20170;-53
2021/06/26 00:13:23;;;;;;;5.33;4.83;;;16.80;99.90;;;;;;5076936;28;20167;-53
2021/06/26 00:15:48;;;;;;;6.13;5.13;;;16.70;99.90;;;;;;5075380;28;20194;-50
2021/06/26 00:18:15;;;;;;;4.70;4.30;;;16.70;99.90;;;;;;5076683;28;20689;-57
2021/06/26 00:20:41;;;;;;;5.33;4.83;;;16.60;99.90;;;;;;5074378;28;20630;-60
2021/06/26 00:23:07;;;;;;;5.60;4.77;;;16.60;99.90;;;;;;5077063;28;20174;-53
2021/06/26 00:25:33;;;;;;;5.67;4.63;;;16.60;99.90;;;;;;5076032;28;20177;-59
2021/06/26 00:27:58;;;;;;;5.47;4.97;;;16.70;99.90;;;;;;5075259;28;20195;-57
2021/06/26 00:30:26;;;;;;;5.73;4.87;;;16.70;99.90;;;;;;5075870;28;20727;-53
2021/06/26 00:32:54;;;;;;;7.10;4.87;;;16.70;99.90;;;;;;5074898;28;20231;-58
2021/06/26 00:35:19;;;;;;;6.63;4.93;;;16.80;99.90;;;;;;5076111;28;20179;-52
2021/06/26 00:37:45;;;;;;;5.57;5.07;;;16.80;99.90;;;;;;5076214;28;20207;-59
2021/06/26 00:40:12;;;;;;;6.13;5.60;;;16.70;99.90;;;;;;5076339;28;20223;-58
2021/06/26 00:42:40;;;;;;;5.67;5.17;;;16.60;99.90;;;;;;5076450;28;20185;-58
2021/06/26 00:45:08;;;;;;;7.20;5.20;;;16.60;99.90;;;;;;5075912;28;20163;-53
2021/06/26 00:47:34;;;;;;;6.23;5.40;;;16.60;99.90;;;;;;5075375;28;20244;-53
2021/06/26 00:50:00;;;;;;;5.67;5.17;;;16.70;99.90;;;;;;5076073;28;20174;-56
2021/06/26 00:52:25;;;;;;;7.10;5.30;;;16.70;99.90;;;;;;5074548;28;20582;-50
2021/06/26 00:54:51;;;;;;;5.97;5.07;;;16.60;99.90;;;;;;5075554;28;20249;-58
2021/06/26 00:57:19;;;;;;;7.30;5.87;;;16.60;99.90;;;;;;5075408;28;20207;-53
2021/06/26 00:59:46;;;;;;;11.07;5.63;;;16.60;99.90;;;;;;5075511;28;20530;-57
2021/06/26 01:02:12;;;;;;;5.70;5.20;;;16.60;99.90;;;;;;5074374;28;20195;-52
2021/06/26 01:04:37;;;;;;;8.10;5.60;;;16.70;99.90;;;;;;5074582;28;20185;-56
2021/06/26 01:07:03;;;;;;;6.63;5.10;;;16.70;99.90;;;;;;5075369;28;20187;-51
2021/06/26 01:09:29;;;;;;;5.77;5.27;;;16.90;99.90;;;;;;5074362;28;20167;-53
2021/06/26 01:11:57;;;;;;;7.20;6.40;;;17.10;99.90;;;;;;5074986;28;20166;-59
2021/06/26 01:14:29;;;;;;;7.40;5.90;;;17.30;99.90;;;;;;5074017;28;20190;-59
2021/06/26 01:16:56;;;;;;;6.80;6.00;;;17.30;99.90;;;;;;5075797;28;20236;-53
2021/06/26 01:19:22;;;;;;;6.40;5.80;;;17.30;99.90;;;;;;5075322;28;20170;-50
2021/06/26 01:21:54;;;;;;;7.00;5.60;;;17.40;99.90;;;;;;5073972;28;20175;-50
2021/06/26 01:24:20;;;;;;;6.50;5.60;;;17.40;99.90;;;;;;5074807;28;20661;-58
2021/06/26 01:26:46;;;;;;;5.33;4.80;;;17.40;99.90;;;;;;5074256;28;20276;-56
2021/06/26 01:29:12;;;;;;;5.87;5.27;;;17.50;99.90;;;;;;5075782;28;20179;-55
2021/06/26 01:31:39;;;;;;;6.03;5.40;;;17.50;99.90;;;;;;5075161;28;20171;-60
2021/06/26 01:34:05;;;;;;;6.77;5.30;;;17.50;99.90;;;;;;5074575;28;20554;-55
2021/06/26 01:36:31;;;;;;;6.20;4.90;;;17.60;99.90;;;;;;5074390;28;20542;-54
2021/06/26 01:38:57;;;;;;;5.97;4.97;;;17.60;99.90;;;;;;5075462;28;20623;-54
2021/06/26 01:41:27;;;;;;;5.90;5.03;;;17.60;99.90;;;;;;5075057;28;20578;-57
2021/06/26 01:43:53;;;;;;;5.93;5.43;;;17.70;99.90;;;;;;5073901;28;20646;-53
2021/06/26 01:46:19;;;;;;;5.87;5.37;;;17.70;99.90;;;;;;5075292;28;20200;-59
2021/06/26 01:48:44;;;;;;;7.40;5.60;;;17.80;99.90;;;;;;5073541;28;20189;-52
2021/06/26 01:51:10;;;;;;;7.37;5.73;;;17.80;99.90;;;;;;5074688;28;20174;-57
2021/06/26 01:53:35;;;;;;;6.20;5.67;;;17.80;99.90;;;;;;5074337;28;20185;-51
2021/06/26 01:56:01;;;;;;;7.83;7.03;;;17.80;99.90;;;;;;5074241;28;20171;-51
2021/06/26 01:58:26;;;;;;;7.00;6.37;;;17.80;99.90;;;;;;5074211;28;20190;-52
2021/06/26 02:00:52;;;;;;;9.17;7.10;;;17.50;99.90;;;;;;5074138;28;20250;-55
2021/06/26 02:03:17;;;;;;;9.60;8.50;;;17.30;99.90;;;;;;5074345;28;20186;-56
2021/06/26 02:05:43;;;;;;;8.77;7.50;;;17.20;99.90;;;;;;5073829;28;20197;-60
2021/06/26 02:08:08;;;;;;;7.97;7.20;;;17.30;99.90;;;;;;5074543;28;20184;-53
2021/06/26 02:10:35;;;;;;;8.43;7.43;;;17.40;99.90;;;;;;5073800;28;20173;-59
2021/06/26 02:13:01;;;;;;;7.83;7.13;;;17.60;99.90;;;;;;5073881;28;20207;-58
2021/06/26 02:15:27;;;;;;;8.60;7.80;;;17.60;99.90;;;;;;5074693;28;20182;-51
2021/06/26 02:17:53;;;;;;;10.70;9.70;;;17.70;99.90;;;;;;5074269;28;20570;-51
2021/06/26 02:20:18;;;;;;;10.70;9.50;;;17.70;99.90;;;;;;5074418;28;20623;-54
2021/06/26 02:22:45;;;;;;;9.23;8.43;;;17.70;99.90;;;;;;5073457;28;20195;-57
2021/06/26 02:25:13;;;;;;;10.13;9.17;;;17.70;99.90;;;;;;5074379;28;20185;-52
2021/06/26 02:27:39;;;;;;;10.03;9.13;;;17.60;99.90;;;;;;5071514;28;20230;-58
2021/06/26 02:30:07;;;;;;;10.47;9.27;;;17.70;99.90;;;;;;5062124;28;20184;-50
2021/06/26 02:32:33;;;;;;;9.73;8.83;;;17.80;99.90;;;;;;5073952;28;20175;-58
2021/06/26 02:34:59;;;;;;;9.77;8.87;;;17.60;99.90;;;;;;5073292;28;20195;-56
2021/06/26 02:37:24;;;;;;;9.37;8.57;;;17.50;99.90;;;;;;5073677;28;20202;-53
2021/06/26 02:39:50;;;;;;;9.53;8.63;;;17.60;99.90;;;;;;5073772;28;20617;-53
2021/06/26 02:42:16;;;;;;;10.20;9.30;;;17.60;99.90;;;;;;5073117;28;20178;-57
2021/06/26 02:44:42;;;;;;;8.90;8.10;;;17.70;99.90;;;;;;5073948;28;20206;-57
2021/06/26 02:47:07;;;;;;;11.77;10.67;;;17.80;99.90;;;;;;5074109;28;20241;-58
2021/06/26 02:49:33;;;;;;;10.10;9.20;;;17.80;99.90;;;;;;5073989;28;20265;-53
2021/06/26 02:51:58;;;;;;;11.60;10.47;;;17.70;99.90;;;;;;5073009;28;20204;-58
2021/06/26 02:54:24;;;;;;;12.50;11.20;;;17.80;99.90;;;;;;5073693;28;20206;-54
2021/06/26 02:56:49;;;;;;;11.97;10.77;;;17.80;99.90;;;;;;5072450;28;20238;-53
2021/06/26 02:59:15;;;;;;;10.40;9.50;;;17.80;99.90;;;;;;5073261;28;20209;-50
2021/06/26 03:01:40;;;;;;;11.87;10.63;;;17.80;99.90;;;;;;5073645;28;20513;-51
2021/06/26 03:04:06;;;;;;;10.57;9.67;;;17.80;99.90;;;;;;5073482;28;20247;-52
2021/06/26 03:06:32;;;;;;;10.10;9.00;;;17.80;99.90;;;;;;5072641;28;20610;-50
2021/06/26 03:08:57;;;;;;;9.40;8.50;;;17.80;99.90;;;;;;5073991;28;20187;-60
2021/06/26 03:11:23;;;;;;;10.10;9.17;;;17.80;99.90;;;;;;5072806;28;20178;-57
2021/06/26 03:13:48;;;;;;;8.97;8.07;;;17.80;99.90;;;;;;5073638;28;20178;-59
2021/06/26 03:16:14;;;;;;;9.00;8.10;;;17.80;99.90;;;;;;5073889;28;20263;-51
2021/06/26 03:18:43;;;;;;;8.90;8.00;;;17.70;99.90;;;;;;5073392;28;20666;-51
2021/06/26 03:21:10;;;;;;;9.20;8.30;;;17.60;99.90;;;;;;5074148;28;20523;-58
2021/06/26 03:23:36;;;;;;;9.00;8.20;;;17.60;99.90;;;;;;5072537;28;20282;-55
2021/06/26 03:26:04;;;;;;;8.57;7.77;;;17.60;99.90;;;;;;5073933;28;20170;-52
2021/06/26 03:28:29;;;;;;;8.60;7.80;;;17.60;99.90;;;;;;5075081;28;20190;-57
2021/06/26 03:30:55;;;;;;;8.67;7.77;;;17.60;99.90;;;;;;5077071;28;20176;-57
2021/06/26 03:33:21;;;;;;;8.70;7.90;;;17.60;99.90;;;;;;5077203;28;20193;-57
2021/06/26 03:35:46;;;;;;;8.57;7.87;;;17.50;99.90;;;;;;5076230;28;20194;-56
2021/06/26 03:38:12;;;;;;;10.63;9.53;;;17.40;99.90;;;;;;5076550;28;20218;-50
2021/06/26 03:40:37;;;;;;;10.67;8.60;;;17.50;99.90;;;;;;5077355;28;20168;-59
2021/06/26 03:43:03;;;;;;;10.90;9.80;;;17.60;99.90;;;;;;5076005;28;20644;-53
2021/06/26 03:45:28;;;;;;;11.40;10.27;;;17.40;99.90;;;;;;5077386;28;20163;-52
2021/06/26 03:47:54;;;;;;;10.97;9.17;;;17.40;99.90;;;;;;5077354;28;20537;-59
2021/06/26 03:50:19;;;;;;;10.00;9.10;;;17.50;99.90;;;;;;5077162;28;20515;-53
2021/06/26 03:52:45;;;;;;;9.77;8.87;;;17.40;99.90;;;;;;5075824;28;20186;-60
2021/06/26 03:55:10;;;;;;;11.30;10.23;;;17.40;99.90;;;;;;5076908;28;20187;-52
2021/06/26 03:57:36;;;;;;;12.13;10.93;;;17.20;99.90;;;;;;5076614;28;20215;-52
2021/06/26 04:00:06;;;;;;;10.07;9.17;;;17.10;99.90;;;;;;5075897;28;20185;-54
2021/06/26 04:02:32;;;;;;;10.07;8.80;;;17.00;99.90;;;;;;5076420;28;20180;-56
2021/06/26 04:04:58;;;;;;;11.00;9.13;;;17.10;99.90;;;;;;5076821;28;20172;-59
2021/06/26 04:07:23;;;;;;;9.27;8.37;;;17.20;99.90;;;;;;5076792;28;20202;-52
2021/06/26 04:09:49;;;;;;;10.73;8.97;;;17.30;99.90;;;;;;5076372;28;20688;-50
2021/06/26 04:12:14;;;;;;;10.30;9.33;;;17.40;99.90;;;;;;5075124;28;20551;-56
2021/06/26 04:14:40;;;;;;;12.00;9.47;;;17.50;99.90;;;;;;5076735;28;20619;-59
2021/06/26 04:17:06;;;;;;;10.40;9.40;;;17.50;99.90;;;;;;5076691;28;20206;-60
2021/06/26 04:19:32;;;;;;;10.33;9.40;;;17.60;99.90;;;;;;5075474;28;20216;-55
2021/06/26 04:21:57;;;;;;;10.47;9.47;;;17.60;99.90;;;;;;5076097;28;20242;-60
2021/06/26 04:24:23;;;;;;;9.77;8.90;;;17.60;99.90;;;;;;5074894;28;20167;-56
2021/06/26 04:26:48;;;;;;;8.87;8.03;;;17.70;99.90;;;;;;5074991;28;20211;-53
2021/06/26 04:29:14;;;;;;;10.03;9.10;;;17.90;99.90;;;;;;5076230;28;20174;-53
2021/06/26 04:31:39;;;;;;;10.53;8.70;;;17.90;99.90;;;;;;5076082;28;20219;-51
2021/06/26 04:34:05;;;;;;;8.90;8.10;;;18.00;99.90;;;;;;5075027;28;20242;-58
2021/06/26 04:36:31;;;;;;;9.47;8.23;;;18.10;99.90;;;;;;5075911;28;20198;-57
2021/06/26 04:38:56;;;;;;;9.60;8.70;;;18.30;99.90;;;;;;5075032;28;20648;-60
2021/06/26 04:41:22;;;;;;;9.10;8.30;;;18.40;99.90;;;;;;5075715;28;20167;-55
2021/06/26 04:43:48;;;;;;;9.07;8.27;;;18.30;99.90;;;;;;5075092;28;20191;-55
2021/06/26 04:46:14;;;;;;;10.73;8.93;;;18.40;99.90;;;;;;5075378;28;20181;-56
2021/06/26 04:48:41;;;;;;;8.63;7.83;;;18.20;99.90;;;;;;5075816;28;20192;-59
2021/06/26 04:51:06;;;;;;;9.67;8.03;;;18.10;99.90;;;;;;5074876;28;20514;-60
2021/06/26 04:53:32;;;;;;;9.10;8.17;;;18.20;99.90;;;;;;5075326;28;20635;-53
2021/06/26 04:55:58;;;;;;;8.90;8.00;;;18.50;99.90;;;;;;5075762;28;20551;-58
2021/06/26 04:58:24;;;;;;;10.60;8.17;;;18.50;99.90;;;;;;5075340;28;20264;-52
2021/06/26 05:00:52;;;;;;;8.07;7.37;;;18.60;99.90;;;;;;5075718;28;20184;-54
2021/06/26 05:03:18;;;;;;;9.30;8.50;;;18.60;99.90;;;;;;5074213;28;20573;-56
2021/06/26 05:05:44;;;;;;;8.90;8.10;;;18.70;99.90;;;;;;5075414;28;20685;-56
2021/06/26 05:08:11;;;;;;;7.77;7.07;;;18.70;99.90;;;;;;5074544;28;20189;-58
2021/06/26 05:10:37;;;;;;;7.80;7.00;;;18.70;99.90;;;;;;5075392;28;20265;-50
2021/06/26 05:13:03;;;;;;;7.80;7.00;;;18.80;99.90;;;;;;5075124;28;20225;-59
2021/06/26 05:15:28;;;;;;;7.60;6.83;;;18.90;99.90;;;;;;5074223;28;20239;-52
2021/06/26 05:17:54;;;;;;;8.37;6.90;;;19.00;99.90;;;;;;5075267;28;20297;-51
2021/06/26 05:20:19;;;;;;;7.50;6.80;;;19.20;99.90;;;;;;5074284;28;20173;-58
2021/06/26 05:22:45;;;;;;;7.70;7.00;;;19.30;99.90;;;;;;5074969;28;20189;-60
2021/06/26 05:25:11;;;;;;;6.77;6.17;;;19.40;99.90;;;;;;5075522;28;20227;-60
2021/06/26 05:27:37;;;;;;;6.60;6.00;;;19.60;99.90;;;;;;5074758;28;20571;-56
2021/06/26 05:30:04;;;;;;;6.63;6.03;;;19.60;99.90;;;;;;5075191;28;20178;-58
2021/06/26 05:32:29;;;;;;;7.50;5.93;;;19.60;99.90;;;;;;5074711;28;20175;-59
2021/06/26 05:34:55;;;;;;;6.63;6.03;;;19.70;99.90;;;;;;5073796;28;20198;-55
2021/06/26 05:37:20;;;;;;;6.43;5.60;;;19.70;99.90;;;;;;5073725;28;20210;-52
2021/06/26 05:39:46;;;;;;;6.87;6.17;;;19.70;99.90;;;;;;5074224;28;20177;-53
2021/06/26 05:42:12;;;;;;;8.27;6.70;;;19.50;99.90;;;;;;5074005;28;20250;-60
2021/06/26 05:44:37;;;;;;;7.93;7.23;;;19.40;99.90;;;;;;5074927;28;20522;-58
2021/06/26 05:47:03;;;;;;;7.53;6.50;;;19.20;99.90;;;;;;5073684;28;20732;-56
2021/06/26 05:49:28;;;;;;;6.40;5.80;;;19.10;99.90;;;;;;5074541;28;20213;-51
2021/06/26 05:51:54;;;;;;;6.33;5.83;;;19.20;99.90;;;;;;5073080;28;20220;-54
2021/06/26 05:54:19;;;;;;;6.07;5.47;;;19.40;99.90;;;;;;5074539;28;20670;-53
2021/06/26 05:56:45;;;;;;;6.33;5.73;;;19.70;99.90;;;;;;5074199;28;20198;-54
2021/06/26 05:59:11;;;;;;;5.73;5.07;;;19.90;99.90;;;;;;5075200;28;20174;-60
2021/06/26 06:01:37;;;;;;;6.30;5.80;;;20.00;99.90;;;;;;5074226;28;20186;-58
2021/06/26 06:04:02;;;;;;;5.93;5.23;;;19.90;99.90;;;;;;5073486;28;20633;-56
2021/06/26 06:06:28;;;;;;;5.50;5.00;;;19.70;99.90;;;;;;5074119;28;20627;-58
2021/06/26 06:08:53;;;;;;;5.40;4.90;;;19.60;99.90;;;;;;5073380;28;20182;-57
2021/06/26 06:11:19;;;;;;;5.33;4.83;;;19.80;99.90;;;;;;5074093;28;20175;-54
2021/06/26 06:13:44;;;;;;;5.40;4.90;;;19.90;99.90;;;;;;5074421;28;20175;-54
2021/06/26 06:16:10;;;;;;;5.80;5.27;;;20.00;99.90;;;;;;5072992;28;20186;-52
2021/06/26 06:18:35;;;;;;;7.67;5.77;;;20.10;99.90;;;;;;5074329;28;20191;-58
2021/06/26 06:21:01;;;;;;;6.23;5.63;;;20.10;99.90;;;;;;5073904;28;20178;-61
2021/06/26 06:23:27;;;;;;;6.00;5.27;;;20.20;99.90;;;;;;5074077;28;20235;-50
2021/06/26 06:25:54;;;;;;;5.80;5.30;;;20.20;99.90;;;;;;5073780;28;20174;-53
2021/06/26 06:28:19;;;;;;;5.83;5.33;;;20.30;99.90;;;;;;5073088;28;20206;-55
2021/06/26 06:30:45;;;;;;;6.53;5.93;;;20.30;99.90;;;;;;5074580;28;20201;-58
2021/06/26 06:33:10;;;;;;;6.53;5.93;;;20.20;99.90;;;;;;5073266;28;20220;-55
2021/06/26 06:35:36;;;;;;;6.63;6.03;;;20.40;99.90;;;;;;5074364;28;20178;-59
2021/06/26 06:38:02;;;;;;;5.63;5.00;;;20.40;99.90;;;;;;5072977;28;20213;-58
2021/06/26 06:40:28;;;;;;;5.70;5.20;;;20.70;99.90;;;;;;5073652;28;20175;-56
2021/06/26 06:42:54;;;;;;;5.47;5.03;;;21.00;99.90;;;;;;5073762;28;20170;-57
2021/06/26 06:45:21;;;;;;;5.20;4.80;;;21.30;99.90;;;;;;5072571;28;20528;-57
2021/06/26 06:47:46;;;;;;;5.32;4.82;;;21.50;99.90;;;;;;5073599;28;20657;-51
2021/06/26 06:50:12;;;;;;;5.32;4.82;;;21.60;99.90;;;;;;5073041;28;20174;-52
2021/06/26 06:52:38;;;;;;;5.13;4.70;;;21.70;99.90;;;;;;5073371;28;20171;-55
2021/06/26 06:55:05;;;;;;;5.68;4.47;;;21.50;99.90;;;;;;5073303;28;20188;-59
2021/06/26 06:57:31;;;;;;;4.67;4.13;;;21.40;99.90;;;;;;5073011;28;20210;-50
2021/06/26 06:59:56;;;;;;;3.92;3.63;;;21.70;99.90;;;;;;5073483;28;20168;-53
2021/06/26 07:02:22;;;;;;;4.00;3.58;;;21.80;99.90;;;;;;5059076;28;20176;-53
2021/06/26 07:04:48;;;;;;;4.20;3.80;;;22.10;99.90;;;;;;5077852;28;20518;-53
2021/06/26 07:07:15;;;;;;;4.03;3.67;;;22.30;99.90;;;;;;5077424;28;20196;-58
2021/06/26 07:09:40;;;;;;;5.30;3.50;;;22.50;99.90;;;;;;5077775;28;20185;-59
2021/06/26 07:12:06;;;;;;;4.35;3.42;;;22.50;99.90;;;;;;5076539;28;20528;-58
2021/06/26 07:14:32;;;;;;;4.43;4.07;;;22.70;99.90;;;;;;5077188;28;20166;-53
2021/06/26 07:16:57;;;;;;;3.88;3.53;;;22.80;99.90;;;;;;5077220;28;20258;-50
2021/06/26 07:19:23;;;;;;;4.55;4.15;;;22.80;99.90;;;;;;5076414;28;20178;-50
2021/06/26 07:21:49;;;;;;;3.95;3.55;;;22.60;99.90;;;;;;5077209;28;20174;-55
2021/06/26 07:24:14;;;;;;;3.90;3.60;;;22.60;99.90;;;;;;5077577;28;20224;-55
2021/06/26 07:26:40;;;;;;;3.80;3.50;;;22.80;99.90;;;;;;5076208;28;20202;-59
2021/06/26 07:29:06;;;;;;;4.00;3.70;;;22.70;99.90;;;;;;5077070;28;20163;-57
2021/06/26 07:31:32;;;;;;;4.15;3.75;;;22.60;99.90;;;;;;5076998;28;20249;-52
2021/06/26 07:33:58;;;;;;;3.38;3.15;;;22.40;99.90;;;;;;5076351;28;20178;-52
2021/06/26 07:36:24;;;;;;;4.43;3.50;;;22.60;99.90;;;;;;5077214;28;20167;-56
2021/06/26 07:38:49;;;;;;;3.33;3.13;;;22.70;99.90;;;;;;5076995;28;20163;-56
2021/06/26 07:41:15;;;;;;;3.10;2.90;;;22.90;99.90;;;;;;5076559;28;20553;-58
2021/06/26 07:43:41;;;;;;;3.10;2.90;;;23.10;99.90;;;;;;5077756;28;20199;-54
2021/06/26 07:46:07;;;;;;;3.25;2.97;;;23.30;99.90;;;;;;5076910;28;20205;-57
2021/06/26 07:48:33;;;;;;;4.90;3.60;;;23.40;99.90;;;;;;5076954;28;20290;-53
2021/06/26 07:50:59;;;;;;;3.83;3.53;;;23.20;99.90;;;;;;5077124;28;20198;-50
2021/06/26 07:53:24;;;;;;;3.70;3.40;;;22.80;99.90;;;;;;5075968;28;20248;-56
2021/06/26 07:55:53;;;;;;;4.30;3.20;;;22.20;99.90;;;;;;5077286;28;20177;-51
2021/06/26 07:58:23;;;;;;;3.50;3.20;;;21.90;99.90;;;;;;5075736;28;20221;-56
2021/06/26 08:00:50;;;;;;;4.30;3.90;;;21.60;99.90;;;;;;5076645;28;20178;-55
2021/06/26 08:03:17;;;;;;;3.92;3.60;;;21.50;99.90;;;;;;5076589;28;20185;-57
2021/06/26 08:05:43;;;;;;;4.15;3.58;;;21.60;99.90;;;;;;5075739;28;20292;-51
2021/06/26 08:08:09;;;;;;;5.88;3.90;;;21.60;99.90;;;;;;5076417;28;20193;-51
2021/06/26 08:10:35;;;;;;;4.60;4.20;;;21.50;99.90;;;;;;5075547;28;20176;-55
2021/06/26 08:13:00;;;;;;;4.70;4.30;;;21.30;99.90;;;;;;5075876;28;20260;-52
2021/06/26 08:15:26;;;;;;;4.18;3.78;;;21.40;99.90;;;;;;5076363;28;20230;-60
2021/06/26 08:17:52;;;;;;;4.68;4.00;;;21.40;99.90;;;;;;5076262;28;20216;-50
2021/06/26 08:20:17;;;;;;;4.20;3.80;;;21.20;99.90;;;;;;5076498;28;20183;-57
2021/06/26 08:22:43;;;;;;;4.45;4.05;;;21.20;99.90;;;;;;5074940;28;20965;-52
2021/06/26 08:25:09;;;;;;;5.25;4.00;;;21.00;99.90;;;;;;5076173;28;20163;-58
2021/06/26 08:27:35;;;;;;;4.50;3.77;;;21.10;99.90;;;;;;5075731;28;20202;-54
2021/06/26 08:30:01;;;;;;;3.73;3.40;;;21.00;99.90;;;;;;5075598;28;20181;-60
2021/06/26 08:32:26;;;;;;;5.50;3.97;;;21.10;99.90;;;;;;5076350;28;20357;-59
2021/06/26 08:34:52;;;;;;;3.47;3.17;;;21.20;99.90;;;;;;5074813;28;20194;-55
2021/06/26 08:37:17;;;;;;;3.20;2.90;;;21.30;99.90;;;;;;5075776;28;20573;-56
2021/06/26 08:39:43;;;;;;;3.50;3.20;;;21.30;99.90;;;;;;5075671;28;20222;-53
2021/06/26 08:42:09;;;;;;;2.97;2.78;;;21.20;99.90;;;;;;5075271;28;20172;-54
2021/06/26 08:44:35;;;;;;;3.28;2.97;;;21.30;99.90;;;;;;5075718;28;20219;-59
2021/06/26 08:47:00;;;;;;;2.95;2.70;;;21.40;99.90;;;;;;5075589;28;20226;-59
2021/06/26 08:49:26;;;;;;;3.72;3.42;;;21.60;99.90;;;;;;5076213;28;20203;-56
2021/06/26 08:51:54;;;;;;;3.42;2.88;;;21.90;99.90;;;;;;5075803;28;20178;-52
2021/06/26 08:54:20;;;;;;;3.40;2.55;;;21.60;99.90;;;;;;5075669;28;20656;-57
2021/06/26 08:56:47;;;;;;;3.10;2.80;;;21.50;99.90;;;;;;5074522;28;20203;-59
2021/06/26 08:59:13;;;;;;;3.28;2.97;;;21.50;99.90;;;;;;5075590;28;20258;-55
2021/06/26 09:01:40;;;;;;;3.00;2.70;;;21.40;99.90;;;;;;5074435;28;20241;-55
2021/06/26 09:04:11;;;;;;;2.75;2.55;;;21.40;99.90;;;;;;5075416;28;20187;-56
2021/06/26 09:06:50;;;;;;;2.88;2.60;;;21.70;99.90;;;;;;5075114;28;20172;-52
2021/06/26 09:09:16;;;;;;;2.53;2.33;;;21.60;99.90;;;;;;5075007;28;20646;-59
2021/06/26 09:11:42;;;;;;;3.10;2.90;;;21.50;99.90;;;;;;5075414;28;20182;-59
2021/06/26 09:14:18;;;;;;;2.67;2.35;;;21.60;99.90;;;;;;5074198;28;20176;-56
2021/06/26 09:16:52;;;;;;;2.40;2.20;;;21.90;99.90;;;;;;5075453;28;20231;-52
2021/06/26 09:19:18;;;;;;;2.13;2.03;;;22.00;99.90;;;;;;5075169;28;20632;-53
2021/06/26 09:21:58;;;;;;;2.50;2.30;;;21.90;99.90;;;;;;5073723;28;20538;-53
2021/06/26 09:24:24;;;;;;;2.30;2.10;;;21.90;99.90;;;;;;5074697;28;20161;-57
2021/06/26 09:26:59;;;;;;;2.20;2.10;;;22.10;99.90;;;;;;5074281;28;20212;-55
2021/06/26 09:29:25;;;;;;;2.50;2.30;;;22.50;99.90;;;;;;5074039;28;20187;-51
2021/06/26 09:31:52;;;;;;;2.30;2.20;;;22.60;99.90;;;;;;5075187;28;20220;-50
2021/06/26 09:34:18;;;;;;;2.60;2.40;;;22.70;99.90;;;;;;5074204;28;20198;-53
2021/06/26 09:36:44;;;;;;;2.00;1.90;;;22.80;99.90;;;;;;5074584;28;20612;-52
2021/06/26 09:39:11;;;;;;;2.22;2.08;;;22.70;99.90;;;;;;5074675;28;20589;-53
2021/06/26 09:41:39;;;;;;;2.60;2.40;;;22.50;99.90;;;;;;5073743;28;20181;-59
2021/06/26 09:44:12;;;;;;;2.40;2.20;;;22.20;99.90;;;;;;5074764;28;20163;-55
2021/06/26 09:46:50;;;;;;;2.50;2.10;;;22.00;99.90;;;;;;5075030;28;20198;-53
2021/06/26 09:49:25;;;;;;;2.63;2.42;;;22.20;99.90;;;;;;5074861;28;20180;-51
2021/06/26 09:52:01;;;;;;;2.67;2.47;;;22.30;99.90;;;;;;5073168;28;20197;-53
2021/06/26 09:54:28;;;;;;;2.60;2.30;;;22.30;99.90;;;;;;5074670;28;20227;-60
2021/06/26 09:56:53;;;;;;;2.17;2.08;;;22.40;99.90;;;;;;5073453;28;20293;-53
2021/06/26 09:59:29;;;;;;;3.00;2.60;;;22.40;99.90;;;;;;5074172;28;20331;-51
2021/06/26 10:01:57;;;;;;;2.67;2.47;;;22.40;99.90;;;;;;5074654;28;20150;-55
2021/06/26 10:04:23;;;;;;;2.13;2.03;;;22.40;99.90;;;;;;5073139;28;20206;-52
2021/06/26 10:06:49;;;;;;;1.90;1.80;;;22.50;99.90;;;;;;5074628;28;20194;-55
2021/06/26 10:09:15;;;;;;;2.10;2.00;;;22.80;99.90;;;;;;5073700;28;20636;-58
2021/06/26 10:11:42;;;;;;;2.03;1.92;;;22.90;99.90;;;;;;5074531;28;20198;-54
2021/06/26 10:14:11;;;;;;;2.05;1.95;;;23.10;99.90;;;;;;5074141;28;20175;-59
2021/06/26 10:16:40;;;;;;;2.25;2.15;;;23.10;99.90;;;;;;5074048;28;20206;-60
2021/06/26 10:19:11;;;;;;;1.65;1.55;;;23.20;99.90;;;;;;5074323;28;20178;-57
2021/06/26 10:21:37;;;;;;;2.08;1.98;;;23.50;99.90;;;;;;5073566;28;20178;-56
2021/06/26 10:24:21;;;;;;;2.00;1.90;;;23.90;99.90;;;;;;5073347;28;20169;-52
2021/06/26 10:26:47;;;;;;;1.95;1.80;;;24.20;99.90;;;;;;5074107;28;20603;-53
2021/06/26 10:29:13;;;;;;;1.90;1.80;;;24.20;99.90;;;;;;5073376;28;20703;-57
2021/06/26 10:31:43;;;;;;;1.90;1.80;;;24.20;99.90;;;;;;5073991;28;20163;-53
2021/06/26 10:34:09;;;;;;;2.03;1.67;;;24.30;99.90;;;;;;5073954;28;20162;-57
2021/06/26 10:36:37;;;;;;;1.65;1.55;;;24.60;99.90;;;;;;5072111;28;20297;-57
2021/06/26 10:39:15;;;;;;;1.70;1.60;;;24.60;99.90;;;;;;5073706;28;20179;-52
2021/06/26 10:41:40;;;;;;;1.92;1.73;;;24.40;99.90;;;;;;5072970;28;20159;-56
2021/06/26 10:44:07;;;;;;;1.80;1.70;;;24.20;99.90;;;;;;5073730;28;20174;-51
2021/06/26 10:46:33;;;;;;;2.35;1.73;;;24.30;99.90;;;;;;5072707;28;20194;-53
2021/06/26 10:49:05;;;;;;;1.80;1.70;;;24.40;99.90;;;;;;5073817;28;20162;-60
2021/06/26 10:51:42;;;;;;;1.70;1.60;;;24.40;99.90;;;;;;5073167;28;20201;-57
2021/06/26 10:54:08;;;;;;;1.70;1.60;;;24.70;99.90;;;;;;5073829;28;20174;-60
2021/06/26 10:56:34;;;;;;;1.75;1.65;;;24.90;99.90;;;;;;5073788;28;20685;-52
2021/06/26 10:59:08;;;;;;;1.80;1.70;;;25.10;99.90;;;;;;5073549;28;20178;-58
2021/06/26 11:01:33;;;;;;;1.70;1.60;;;25.30;99.90;;;;;;5073552;28;20186;-54
2021/06/26 11:04:10;;;;;;;1.63;1.40;;;25.10;99.90;;;;;;5073504;28;20186;-53
2021/06/26 11:06:37;;;;;;;2.05;1.83;;;24.90;99.90;;;;;;5072853;28;20182;-59
2021/06/26 11:09:06;;;;;;;1.60;1.50;;;24.60;99.90;;;;;;5073379;28;20166;-51
2021/06/26 11:11:37;;;;;;;1.83;1.73;;;24.70;99.90;;;;;;5073533;28;20175;-50
2021/06/26 11:14:17;;;;;;;1.70;1.60;;;24.80;99.90;;;;;;5072521;28;20178;-51
2021/06/26 11:16:53;;;;;;;1.85;1.75;;;24.60;99.90;;;;;;5073649;28;20210;-55
2021/06/26 11:19:21;;;;;;;1.73;1.63;;;24.50;99.90;;;;;;5073710;28;20296;-51
2021/06/26 11:21:48;;;;;;;1.80;1.70;;;24.50;99.90;;;;;;5073282;28;20499;-59
2021/06/26 11:24:14;;;;;;;1.85;1.75;;;24.60;99.90;;;;;;5072384;28;20186;-51
2021/06/26 11:26:47;;;;;;;1.85;1.75;;;24.70;99.90;;;;;;5073864;28;20190;-58
2021/06/26 11:29:29;;;;;;;1.60;1.50;;;24.80;99.90;;;;;;5072411;28;20171;-51
2021/06/26 11:31:57;;;;;;;1.95;1.75;;;25.10;99.90;;;;;;5073272;28;20232;-59
2021/06/26 11:34:22;;;;;;;1.90;1.67;;;25.20;99.90;;;;;;5066665;28;20278;-51
2021/06/26 11:36:59;;;;;;;1.67;1.38;;;25.50;99.90;;;;;;5065908;28;20285;-57
2021/06/26 11:39:25;;;;;;;1.60;1.50;;;25.90;99.90;;;;;;5074129;28;20178;-52
2021/06/26 11:41:51;;;;;;;1.80;1.70;;;25.90;99.90;;;;;;5073069;28;20174;-57
2021/06/26 11:44:16;;;;;;;1.20;1.20;;;26.00;99.90;;;;;;5072412;28;20190;-56
2021/06/26 11:46:42;;;;;;;1.60;1.50;;;26.00;99.90;;;;;;5073086;28;20226;-52
2021/06/26 11:49:08;;;;;;;1.20;1.20;;;26.30;99.90;;;;;;5074892;28;20198;-55
2021/06/26 11:51:33;;;;;;;1.40;1.30;;;26.60;99.90;;;;;;5075944;28;20513;-55
2021/06/26 11:53:59;;;;;;;1.50;1.50;;;26.60;99.90;;;;;;5076163;28;20186;-55
2021/06/26 11:56:24;;;;;;;1.60;1.50;;;26.70;99.90;;;;;;5076826;28;20505;-55
2021/06/26 11:58:51;;;;;;;1.60;1.50;;;26.70;99.90;;;;;;5076914;28;20189;-53
2021/06/26 12:01:27;;;;;;;1.83;1.58;;;26.70;99.90;;;;;;5076598;28;20178;-61
2021/06/26 12:03:54;;;;;;;1.55;1.45;;;26.80;99.90;;;;;;5075397;28;20289;-56
2021/06/26 12:06:20;;;;;;;1.38;1.38;;;26.80;99.90;;;;;;5076707;28;20174;-54
2021/06/26 12:08:48;;;;;;;1.58;1.48;;;26.70;99.90;;;;;;5075949;28;20177;-52
2021/06/26 12:11:15;;;;;;;1.98;1.80;;;26.80;99.90;;;;;;5076234;28;20568;-59
2021/06/26 12:13:42;;;;;;;1.45;1.30;;;26.80;99.90;;;;;;5076672;28;20171;-55
2021/06/26 12:16:12;;;;;;;2.70;1.70;;;26.90;99.90;;;;;;5075332;28;20650;-56
2021/06/26 12:18:46;;;;;;;1.88;1.67;;;27.20;99.90;;;;;;5076305;28;20210;-60
2021/06/26 12:21:12;;;;;;;1.58;1.55;;;27.10;99.90;;;;;;5075292;28;20623;-55
2021/06/26 12:23:50;;;;;;;1.48;1.38;;;27.20;99.90;;;;;;5076501;28;20270;-58
2021/06/26 12:26:24;;;;;;;1.50;1.40;;;27.10;99.90;;;;;;5076520;28;20179;-60
2021/06/26 12:28:50;;;;;;;1.40;1.30;;;27.10;99.90;;;;;;5076115;28;20268;-52
2021/06/26 12:31:16;;;;;;;1.63;1.52;;;27.20;99.90;;;;;;5076076;28;20175;-56
2021/06/26 12:33:44;;;;;;;1.63;1.52;;;27.40;99.90;;;;;;5074701;28;20663;-60
2021/06/26 12:36:20;;;;;;;1.60;1.50;;;27.30;99.90;;;;;;5076600;28;20182;-53
2021/06/26 12:38:47;;;;;;;1.20;1.20;;;27.00;99.90;;;;;;5075149;28;20184;-58
2021/06/26 12:41:24;;;;;;;3.25;1.65;;;26.60;99.90;;;;;;5075904;28;20673;-57
2021/06/26 12:43:50;;;;;;;1.60;1.50;;;26.50;99.90;;;;;;5076043;28;20177;-56